createdAt,value
2018-12-17T00:00:20.760Z,1.79
2018-12-17T00:01:50.790Z,1.82
2018-12-17T00:03:20.697Z,1.91
2018-12-17T00:04:50.578Z,1.89
2018-12-17T00:06:20.460Z,1.85
2018-12-17T00:07:50.376Z,1.92
2018-12-17T00:09:20.414Z,1.98
2018-12-17T00:10:50.307Z,2.05
2018-12-17T00:12:20.218Z,2.10
2018-12-17T00:13:50.121Z,2.05
2018-12-17T00:15:20.106Z,1.96
2018-12-17T00:16:50.018Z,2.00
2018-12-17T00:18:19.898Z,2.08
2018-12-17T00:19:49.787Z,2.12
2018-12-17T00:21:19.679Z,2.18
2018-12-17T00:22:49.589Z,2.21
2018-12-17T00:24:19.466Z,2.11
2018-12-17T00:28:13.231Z,1.91
2018-12-17T00:29:43.112Z,1.88
2018-12-17T00:31:13.011Z,1.94
2018-12-17T00:32:42.916Z,2.02
2018-12-17T00:34:12.794Z,2.07
2018-12-17T00:35:42.682Z,2.06
2018-12-17T00:37:12.594Z,2.06
2018-12-17T00:38:42.474Z,2.11
2018-12-17T00:40:12.729Z,2.12
2018-12-17T00:41:42.636Z,2.16
2018-12-17T00:43:12.524Z,2.15
2018-12-17T00:44:42.410Z,2.13
2018-12-17T00:46:12.419Z,2.12
2018-12-17T00:47:42.336Z,2.04
2018-12-17T00:49:12.217Z,1.99
2018-12-17T00:50:42.214Z,1.94
2018-12-17T00:52:12.102Z,1.87
2018-12-17T00:53:41.987Z,1.81
2018-12-17T00:55:12.302Z,1.86
2018-12-17T00:56:42.187Z,1.80
2018-12-17T00:58:15.114Z,1.84
2018-12-17T00:59:43.970Z,1.88
2018-12-17T01:01:13.869Z,1.88
2018-12-17T01:02:43.877Z,1.88
2018-12-17T01:04:13.810Z,1.91
2018-12-17T01:05:43.813Z,1.89
2018-12-17T01:07:13.712Z,1.99
2018-12-17T01:08:43.787Z,1.94
2018-12-17T01:10:13.841Z,1.95
2018-12-17T01:11:43.735Z,2.01
2018-12-17T01:13:13.656Z,1.92
2018-12-17T01:14:43.646Z,1.91
2018-12-17T01:16:13.671Z,1.98
2018-12-17T01:17:43.590Z,2.02
2018-12-17T01:19:13.603Z,2.05
2018-12-17T01:20:43.510Z,2.07
2018-12-17T01:22:13.402Z,2.13
2018-12-17T01:23:43.519Z,2.19
2018-12-17T01:25:13.418Z,2.12
2018-12-17T01:26:43.304Z,2.17
2018-12-17T01:28:13.305Z,2.21
2018-12-17T01:29:43.215Z,2.16
2018-12-17T01:31:13.110Z,2.09
2018-12-17T01:32:43.143Z,2.01
2018-12-17T01:34:13.024Z,1.93
2018-12-17T01:35:42.910Z,1.89
2018-12-17T01:37:20.146Z,1.94
2018-12-17T01:38:50.032Z,2.02
2018-12-17T01:40:19.925Z,1.95
2018-12-17T01:41:49.804Z,1.93
2018-12-17T01:43:19.739Z,1.99
2018-12-17T01:44:49.616Z,2.01
2018-12-17T01:46:19.518Z,1.94
2018-12-17T01:47:49.421Z,1.88
2018-12-17T01:49:19.542Z,1.93
2018-12-17T01:50:49.435Z,2.01
2018-12-17T01:52:19.441Z,2.07
2018-12-17T01:53:49.331Z,1.98
2018-12-17T01:55:19.224Z,1.88
2018-12-17T01:56:49.096Z,1.93
2018-12-17T01:58:18.983Z,2.01
2018-12-17T01:59:48.883Z,2.08
2018-12-17T02:01:18.767Z,2.12
2018-12-17T02:02:48.888Z,2.11
2018-12-17T02:04:18.897Z,1.97
2018-12-17T02:05:48.785Z,2.03
2018-12-17T02:07:18.679Z,2.09
2018-12-17T02:08:48.702Z,2.09
2018-12-17T02:10:18.599Z,2.08
2018-12-17T02:11:48.475Z,2.10
2018-12-17T02:13:18.359Z,1.99
2018-12-17T02:14:48.263Z,1.99
2018-12-17T02:16:18.373Z,2.04
2018-12-17T02:17:48.411Z,2.07
2018-12-17T02:19:18.322Z,2.12
2018-12-17T02:20:48.239Z,2.13
2018-12-17T02:22:18.142Z,2.13
2018-12-17T02:23:48.134Z,2.10
2018-12-17T02:25:18.138Z,2.13
2018-12-17T02:26:48.034Z,2.11
2018-12-17T02:28:17.930Z,2.07
2018-12-17T02:29:47.832Z,2.04
2018-12-17T02:31:18.142Z,2.07
2018-12-17T02:32:48.045Z,2.09
2018-12-17T02:34:17.934Z,2.11
2018-12-17T02:35:48.031Z,2.13
2018-12-17T02:37:17.927Z,2.13
2018-12-17T02:38:47.823Z,2.11
2018-12-17T02:40:17.818Z,2.14
2018-12-17T02:41:47.826Z,2.17
2018-12-17T02:43:17.716Z,2.11
2018-12-17T02:44:47.735Z,2.11
2018-12-17T02:46:28.046Z,2.13
2018-12-17T02:47:57.938Z,2.11
2018-12-17T02:49:52.646Z,2.13
2018-12-17T02:51:22.550Z,2.07
2018-12-17T02:52:52.441Z,2.05
2018-12-17T02:54:22.340Z,2.07
2018-12-17T02:55:52.231Z,2.09
2018-12-17T02:57:22.161Z,2.11
2018-12-17T02:58:52.132Z,2.12
2018-12-17T03:00:22.047Z,2.08
2018-12-17T03:01:52.135Z,2.02
2018-12-17T03:03:22.043Z,2.02
2018-12-17T03:04:52.285Z,2.05
2018-12-17T03:06:22.395Z,1.98
2018-12-17T03:07:52.295Z,2.01
2018-12-17T03:09:22.694Z,1.88
2018-12-17T03:10:52.733Z,1.86
2018-12-17T03:12:22.755Z,1.93
2018-12-17T03:13:52.634Z,2.01
2018-12-17T03:15:22.548Z,2.01
2018-12-17T03:16:52.447Z,2.04
2018-12-17T03:18:22.377Z,2.09
2018-12-17T03:19:52.479Z,2.13
2018-12-17T03:21:22.516Z,2.15
2018-12-17T03:22:52.399Z,2.16
2018-12-17T03:24:22.534Z,2.19
2018-12-17T03:25:52.548Z,2.22
2018-12-17T03:27:22.432Z,2.15
2018-12-17T03:28:52.394Z,2.10
2018-12-17T03:30:22.472Z,2.13
2018-12-17T03:31:52.700Z,2.08
2018-12-17T03:33:22.593Z,2.12
2018-12-17T03:34:52.495Z,2.15
2018-12-17T03:36:22.411Z,2.19
2018-12-17T03:37:52.303Z,2.17
2018-12-17T03:39:22.189Z,2.18
2018-12-17T03:40:52.364Z,2.12
2018-12-17T03:42:22.350Z,2.16
2018-12-17T03:43:52.237Z,2.19
2018-12-17T03:45:22.254Z,2.13
2018-12-17T03:46:52.152Z,2.15
2018-12-17T03:48:22.035Z,2.13
2018-12-17T03:49:51.915Z,2.02
2018-12-17T03:51:21.937Z,2.05
2018-12-17T03:52:51.826Z,2.02
2018-12-17T03:54:21.731Z,1.96
2018-12-17T03:55:51.618Z,1.95
2018-12-17T03:57:21.500Z,1.93
2018-12-17T03:58:59.084Z,2.00
2018-12-17T04:00:23.565Z,1.95
2018-12-17T04:01:53.470Z,1.87
2018-12-17T04:03:23.476Z,1.80
2018-12-17T04:04:53.683Z,1.86
2018-12-17T04:06:23.593Z,1.92
2018-12-17T04:07:53.600Z,1.84
2018-12-17T04:09:23.487Z,1.84
2018-12-17T04:10:53.393Z,1.87
2018-12-17T04:12:23.494Z,1.91
2018-12-17T04:13:53.394Z,1.89
2018-12-17T04:15:23.494Z,1.95
2018-12-17T04:16:53.402Z,1.91
2018-12-17T04:18:23.398Z,1.91
2018-12-17T04:19:53.287Z,1.98
2018-12-17T04:21:26.230Z,2.05
2018-12-17T04:22:56.122Z,2.04
2018-12-17T04:24:26.006Z,2.08
2018-12-17T04:25:56.019Z,2.12
2018-12-17T04:27:25.916Z,2.16
2018-12-17T04:28:55.898Z,2.18
2018-12-17T04:30:25.908Z,2.20
2018-12-17T04:31:55.923Z,2.24
2018-12-17T04:33:25.825Z,2.26
2018-12-17T04:34:56.066Z,2.22
2018-12-17T04:36:25.976Z,2.14
2018-12-17T04:37:55.978Z,2.16
2018-12-17T04:39:25.855Z,2.09
2018-12-17T04:40:55.878Z,2.04
2018-12-17T04:42:25.823Z,2.06
2018-12-17T04:43:55.788Z,1.98
2018-12-17T04:45:25.691Z,1.89
2018-12-17T04:46:55.606Z,1.88
2018-12-17T04:48:25.494Z,1.79
2018-12-17T04:49:55.509Z,1.73
2018-12-17T04:51:25.667Z,1.70
2018-12-17T04:52:55.565Z,1.78
2018-12-17T04:54:25.608Z,1.84
2018-12-17T04:55:55.628Z,1.91
2018-12-17T04:57:25.544Z,1.97
2018-12-17T04:58:55.538Z,2.01
2018-12-17T05:00:25.663Z,2.07
2018-12-17T05:01:55.707Z,2.10
2018-12-17T05:03:25.595Z,2.14
2018-12-17T05:04:55.488Z,2.18
2018-12-17T05:06:25.500Z,2.19
2018-12-17T05:07:55.618Z,2.19
2018-12-17T05:09:25.516Z,2.13
2018-12-17T05:10:55.564Z,2.12
2018-12-17T05:12:25.555Z,2.07
2018-12-17T05:13:55.439Z,2.02
2018-12-17T05:15:25.329Z,2.04
2018-12-17T05:16:55.319Z,2.07
2018-12-17T05:18:25.306Z,2.13
2018-12-17T05:19:55.299Z,2.07
2018-12-17T05:21:25.218Z,2.07
2018-12-17T05:22:55.111Z,2.11
2018-12-17T05:24:25.001Z,2.08
2018-12-17T05:25:54.899Z,2.07
2018-12-17T05:27:24.808Z,2.10
2018-12-17T05:28:54.888Z,2.04
2018-12-17T05:30:24.782Z,2.02
2018-12-17T05:31:54.932Z,2.05
2018-12-17T05:33:25.067Z,2.02
2018-12-17T05:34:55.022Z,1.94
2018-12-17T05:36:24.959Z,1.88
2018-12-17T05:37:55.006Z,1.86
2018-12-17T05:39:24.894Z,1.86
2018-12-17T05:40:55.355Z,1.81
2018-12-17T05:42:25.251Z,1.74
2018-12-17T05:43:55.144Z,1.82
2018-12-17T05:45:25.168Z,1.84
2018-12-17T05:46:55.096Z,1.78
2018-12-17T05:48:25.087Z,1.78
2018-12-17T05:49:54.993Z,1.86
2018-12-17T05:51:24.881Z,1.92
2018-12-17T05:52:55.131Z,1.88
2018-12-17T05:54:25.118Z,1.87
2018-12-17T05:55:55.039Z,1.90
2018-12-17T05:57:24.940Z,1.88
2018-12-17T05:58:54.819Z,1.81
2018-12-17T06:00:24.935Z,1.83
2018-12-17T06:01:54.854Z,1.80
2018-12-17T06:03:24.768Z,1.82
2018-12-17T06:04:54.659Z,1.84
2018-12-17T06:06:24.687Z,1.87
2018-12-17T06:07:54.575Z,1.76
2018-12-17T06:09:24.688Z,1.63
2018-12-17T06:10:54.604Z,1.54
2018-12-17T06:12:24.492Z,1.53
2018-12-17T06:13:54.515Z,1.54
2018-12-17T06:15:24.411Z,1.58
2018-12-17T06:16:54.323Z,1.61
2018-12-17T06:18:24.198Z,1.63
2018-12-17T06:20:01.395Z,1.64
2018-12-17T06:21:31.291Z,1.57
2018-12-17T06:23:01.302Z,1.60
2018-12-17T06:24:31.182Z,1.61
2018-12-17T06:26:01.192Z,1.53
2018-12-17T06:27:36.735Z,1.61
2018-12-17T06:29:03.117Z,1.68
2018-12-17T06:30:33.123Z,1.60
2018-12-17T06:32:03.123Z,1.58
2018-12-17T06:33:33.006Z,1.56
2018-12-17T06:35:03.355Z,1.67
2018-12-17T06:36:33.278Z,1.77
2018-12-17T06:38:03.279Z,1.80
2018-12-17T06:39:33.263Z,1.83
2018-12-17T06:41:03.162Z,1.85
2018-12-17T06:42:33.067Z,1.83
2018-12-17T06:44:03.678Z,1.87
2018-12-17T06:45:33.692Z,1.92
2018-12-17T06:47:03.642Z,1.95
2018-12-17T06:48:33.536Z,1.94
2018-12-17T06:50:04.580Z,1.98
2018-12-17T06:51:34.719Z,1.97
2018-12-17T06:53:04.586Z,1.99
2018-12-17T06:54:34.605Z,2.01
2018-12-17T06:56:04.628Z,2.03
2018-12-17T06:57:34.544Z,2.04
2018-12-17T06:59:04.557Z,2.06
2018-12-17T07:00:38.420Z,2.04
2018-12-17T07:02:08.653Z,1.97
2018-12-17T07:03:38.535Z,2.00
2018-12-17T07:05:08.540Z,2.03
2018-12-17T07:06:38.547Z,2.04
2018-12-17T07:08:08.439Z,1.97
2018-12-17T07:09:38.334Z,1.95
2018-12-17T07:11:08.218Z,1.94
2018-12-17T07:12:38.110Z,1.96
2018-12-17T07:14:08.003Z,1.95
2018-12-17T07:15:37.903Z,1.97
2018-12-17T07:17:07.816Z,1.90
2018-12-17T07:18:37.815Z,1.82
2018-12-17T07:20:07.969Z,1.91
2018-12-17T07:21:37.890Z,1.96
2018-12-17T07:23:07.802Z,2.00
2018-12-17T07:24:37.694Z,2.02
2018-12-17T07:26:07.699Z,2.03
2018-12-17T07:27:37.635Z,1.92
2018-12-17T07:29:07.539Z,1.92
2018-12-17T07:30:37.433Z,2.00
2018-12-17T07:32:07.464Z,1.99
2018-12-17T07:33:37.466Z,1.96
2018-12-17T07:35:07.478Z,1.89
2018-12-17T07:36:37.626Z,1.95
2018-12-17T07:38:07.527Z,2.02
2018-12-17T07:39:37.559Z,2.09
2018-12-17T07:41:07.476Z,2.17
2018-12-17T07:42:37.390Z,2.11
2018-12-17T07:44:07.296Z,2.18
2018-12-17T07:45:37.211Z,2.23
2018-12-17T07:47:07.115Z,2.21
2018-12-17T07:48:40.164Z,2.23
2018-12-17T07:50:10.090Z,2.30
2018-12-17T07:51:40.109Z,2.37
2018-12-17T07:53:10.329Z,2.40
2018-12-17T07:54:47.822Z,2.31
2018-12-17T07:56:17.799Z,2.35
2018-12-17T07:57:47.704Z,2.42
2018-12-17T07:59:17.620Z,2.39
2018-12-17T08:00:47.558Z,2.35
2018-12-17T08:02:17.534Z,2.40
2018-12-17T08:03:47.441Z,2.43
2018-12-17T08:05:17.386Z,2.41
2018-12-17T08:06:53.058Z,2.44
2018-12-17T08:08:22.959Z,2.46
2018-12-17T08:09:52.876Z,2.48
2018-12-17T08:11:22.864Z,2.49
2018-12-17T08:12:52.909Z,2.46
2018-12-17T08:14:22.829Z,2.37
2018-12-17T08:15:52.879Z,2.28
2018-12-17T08:17:22.936Z,2.23
2018-12-17T08:18:52.871Z,2.25
2018-12-17T08:20:22.805Z,2.33
2018-12-17T08:21:52.751Z,2.34
2018-12-17T08:23:22.689Z,2.29
2018-12-17T08:24:52.599Z,2.30
2018-12-17T08:26:22.544Z,2.26
2018-12-17T08:27:52.513Z,2.25
2018-12-17T08:29:22.460Z,2.18
2018-12-17T08:30:52.510Z,2.19
2018-12-17T08:32:22.475Z,2.24
2018-12-17T08:33:52.476Z,2.36
2018-12-17T08:35:22.394Z,2.37
2018-12-17T08:36:52.526Z,2.48
2018-12-17T08:38:22.439Z,2.61
2018-12-17T08:39:52.440Z,2.70
2018-12-17T08:41:22.362Z,2.87
2018-12-17T08:42:53.207Z,3.01
2018-12-17T08:44:23.179Z,3.08
2018-12-17T08:45:54.059Z,3.23
2018-12-17T08:47:24.011Z,3.29
2018-12-17T08:48:53.969Z,3.32
2018-12-17T08:50:24.025Z,3.36
2018-12-17T08:51:53.978Z,3.34
2018-12-17T08:53:23.934Z,3.42
2018-12-17T08:54:54.013Z,3.44
2018-12-17T08:56:23.956Z,3.52
2018-12-17T08:57:53.915Z,3.55
2018-12-17T08:59:23.978Z,3.59
2018-12-17T09:00:54.015Z,3.59
2018-12-17T09:02:24.097Z,3.67
2018-12-17T09:03:54.006Z,3.72
2018-12-17T09:05:23.928Z,3.88
2018-12-17T09:06:53.850Z,3.92
2018-12-17T09:08:23.838Z,4.00
2018-12-17T09:09:53.731Z,4.08
2018-12-17T09:11:23.655Z,4.08
2018-12-17T09:12:53.672Z,4.13
2018-12-17T09:14:23.563Z,4.17
2018-12-17T09:15:53.549Z,4.20
2018-12-17T09:17:23.445Z,4.16
2018-12-17T09:18:53.326Z,4.16
2018-12-17T09:20:23.337Z,4.22
2018-12-17T09:21:53.432Z,4.28
2018-12-17T09:23:23.471Z,4.37
2018-12-17T09:24:53.487Z,4.42
2018-12-17T09:26:23.391Z,4.46
2018-12-17T09:27:53.305Z,4.52
2018-12-17T09:29:23.312Z,4.52
2018-12-17T09:30:53.234Z,4.52
2018-12-17T09:32:23.134Z,4.43
2018-12-17T09:33:53.047Z,4.41
2018-12-17T09:35:23.075Z,4.45
2018-12-17T09:36:53.028Z,4.45
2018-12-17T09:38:22.934Z,4.45
2018-12-17T09:39:52.972Z,4.43
2018-12-17T09:41:23.285Z,4.53
2018-12-17T09:42:53.250Z,4.60
2018-12-17T09:44:23.395Z,4.67
2018-12-17T09:45:53.287Z,4.68
2018-12-17T09:47:23.332Z,4.70
2018-12-17T09:48:53.360Z,4.74
2018-12-17T09:50:23.362Z,4.77
2018-12-17T09:51:53.260Z,4.83
2018-12-17T09:53:23.318Z,4.74
2018-12-17T09:54:53.227Z,4.68
2018-12-17T09:56:23.242Z,4.70
2018-12-17T09:57:53.152Z,4.63
2018-12-17T09:59:23.171Z,4.57
2018-12-17T10:00:53.070Z,4.63
2018-12-17T10:02:22.982Z,4.59
2018-12-17T10:03:52.882Z,4.63
2018-12-17T10:05:22.828Z,4.73
2018-12-17T10:06:52.760Z,4.91
2018-12-17T10:08:22.755Z,5.04
2018-12-17T10:09:52.710Z,5.02
2018-12-17T10:11:22.692Z,5.03
2018-12-17T10:12:52.634Z,5.12
2018-12-17T10:14:22.704Z,5.22
2018-12-17T10:15:52.695Z,5.24
2018-12-17T10:17:22.666Z,5.17
2018-12-17T10:18:52.622Z,5.24
2018-12-17T10:20:22.656Z,5.21
2018-12-17T10:21:52.841Z,5.15
2018-12-17T10:23:22.774Z,5.18
2018-12-17T10:27:24.920Z,5.16
2018-12-17T10:32:00.392Z,5.19
2018-12-17T10:33:30.345Z,5.23
2018-12-17T10:35:13.281Z,5.25
2018-12-17T10:36:43.353Z,5.12
2018-12-17T10:38:13.411Z,5.08
2018-12-17T10:39:43.349Z,5.15
2018-12-17T10:41:13.279Z,5.20
2018-12-17T10:42:43.233Z,5.16
2018-12-17T10:44:13.288Z,5.17
2018-12-17T10:45:43.338Z,5.17
2018-12-17T10:47:13.339Z,5.21
2018-12-17T10:48:43.353Z,5.19
2018-12-17T10:50:13.255Z,5.19
2018-12-17T10:51:43.299Z,5.20
2018-12-17T10:53:13.211Z,5.29
2018-12-17T10:54:43.154Z,5.33
2018-12-17T10:56:13.047Z,5.43
2018-12-17T10:57:42.951Z,5.51
2018-12-17T10:59:12.863Z,5.48
2018-12-17T11:00:48.654Z,5.50
2018-12-17T11:02:25.947Z,5.65
2018-12-17T11:04:02.495Z,5.56
2018-12-17T11:05:32.920Z,5.65
2018-12-17T11:07:03.462Z,5.78
2018-12-17T11:08:33.393Z,5.92
2018-12-17T11:12:54.567Z,6.06
2018-12-17T11:14:24.715Z,6.06
2018-12-17T11:15:54.763Z,6.19
2018-12-17T11:17:24.698Z,6.29
2018-12-17T11:18:54.619Z,6.42
2018-12-17T11:20:24.558Z,6.50
2018-12-17T11:21:54.588Z,6.58
2018-12-17T11:23:24.615Z,6.60
2018-12-17T11:24:54.519Z,6.53
2018-12-17T11:26:24.435Z,6.51
2018-12-17T11:27:54.379Z,6.42
2018-12-17T11:29:24.306Z,6.28
2018-12-17T11:30:54.213Z,6.35
2018-12-17T11:32:24.225Z,6.38
2018-12-17T11:33:55.776Z,6.50
2018-12-17T11:35:25.780Z,6.58
2018-12-17T11:36:55.888Z,6.81
2018-12-17T11:38:25.811Z,7.01
2018-12-17T11:39:55.895Z,7.20
2018-12-17T11:41:25.934Z,7.47
2018-12-17T11:42:56.020Z,7.80
2018-12-17T11:44:25.961Z,8.08
2018-12-17T11:45:57.111Z,8.27
2018-12-17T11:47:27.105Z,8.34
2018-12-17T11:48:57.140Z,8.33
2018-12-17T11:50:27.166Z,8.36
2018-12-17T11:51:57.120Z,8.14
2018-12-17T11:53:27.070Z,7.94
2018-12-17T11:54:56.984Z,7.98
2018-12-17T11:57:37.190Z,8.05
2018-12-17T11:59:07.116Z,8.12
2018-12-17T12:03:01.421Z,8.04
2018-12-17T12:04:55.823Z,7.96
2018-12-17T12:06:25.793Z,7.83
2018-12-17T12:07:55.963Z,7.74
2018-12-17T12:09:26.334Z,7.42
2018-12-17T12:10:56.883Z,7.09
2018-12-17T12:12:26.903Z,6.98
2018-12-17T12:13:56.863Z,7.02
2018-12-17T12:15:26.770Z,7.18
2018-12-17T12:16:56.685Z,7.20
2018-12-17T12:18:26.598Z,7.27
2018-12-17T12:19:56.491Z,7.45
2018-12-17T12:21:26.404Z,7.69
2018-12-17T12:22:56.451Z,7.67
2018-12-17T12:24:26.354Z,7.42
2018-12-17T12:25:56.386Z,7.31
2018-12-17T12:27:26.424Z,7.25
2018-12-17T12:28:56.387Z,7.27
2018-12-17T12:30:26.290Z,7.35
2018-12-17T12:31:56.357Z,7.44
2018-12-17T12:33:26.260Z,7.61
2018-12-17T12:34:56.389Z,7.82
2018-12-17T12:36:26.298Z,8.04
2018-12-17T12:40:21.208Z,8.28
2018-12-17T12:41:51.138Z,8.42
2018-12-17T12:43:21.086Z,8.45
2018-12-17T12:44:51.155Z,8.45
2018-12-17T12:46:21.214Z,8.41
2018-12-17T12:47:51.140Z,8.32
2018-12-17T12:49:21.114Z,8.17
2018-12-17T12:50:51.142Z,8.10
2018-12-17T12:52:21.099Z,8.07
2018-12-17T12:53:51.039Z,8.21
2018-12-17T12:55:21.085Z,8.21
2018-12-17T12:56:50.988Z,8.19
2018-12-17T12:58:20.897Z,8.18
2018-12-17T12:59:50.790Z,8.22
2018-12-17T13:01:20.696Z,8.12
2018-12-17T13:02:50.622Z,8.18
2018-12-17T13:04:20.578Z,8.21
2018-12-17T13:05:50.487Z,8.22
2018-12-17T13:07:20.390Z,8.23
2018-12-17T13:08:50.304Z,8.14
2018-12-17T13:10:28.228Z,7.96
2018-12-17T13:12:22.615Z,7.96
2018-12-17T13:13:52.603Z,7.83
2018-12-17T13:15:22.743Z,7.86
2018-12-17T13:16:52.775Z,7.89
2018-12-17T13:18:22.694Z,7.95
2018-12-17T13:19:52.648Z,7.83
2018-12-17T13:21:22.566Z,7.72
2018-12-17T13:22:52.476Z,7.42
2018-12-17T13:24:22.410Z,7.25
2018-12-17T13:26:27.674Z,6.94
2018-12-17T13:27:57.592Z,6.63
2018-12-17T13:34:15.812Z,6.64
2018-12-17T13:35:45.713Z,6.62
2018-12-17T13:37:18.800Z,6.62
2018-12-17T13:38:48.847Z,6.76
2018-12-17T13:40:18.743Z,6.69
2018-12-17T13:41:48.683Z,6.59
2018-12-17T13:43:18.575Z,6.56
2018-12-17T13:44:48.955Z,6.60
2018-12-17T13:46:18.862Z,6.59
2018-12-17T13:47:48.778Z,6.56
2018-12-17T13:49:18.814Z,6.56
2018-12-17T13:50:50.687Z,6.52
2018-12-17T13:52:26.610Z,6.51
2018-12-17T13:53:59.119Z,6.53
2018-12-17T13:55:29.031Z,6.58
2018-12-17T13:56:59.051Z,6.53
2018-12-17T13:58:28.952Z,6.57
2018-12-17T13:59:58.906Z,6.58
2018-12-17T14:01:28.808Z,6.53
2018-12-17T14:02:58.896Z,6.58
2018-12-17T14:04:28.841Z,6.50
2018-12-17T14:05:58.888Z,6.49
2018-12-17T14:07:28.799Z,6.47
2018-12-17T14:08:58.854Z,6.42
2018-12-17T14:10:34.677Z,6.41
2018-12-17T14:12:04.753Z,6.43
2018-12-17T14:13:34.908Z,6.47
2018-12-17T14:15:04.977Z,6.56
2018-12-17T14:16:40.678Z,6.53
2018-12-17T14:18:16.297Z,6.52
2018-12-17T14:19:52.253Z,6.48
2018-12-17T14:21:27.895Z,6.47
2018-12-17T14:22:57.912Z,6.43
2018-12-17T14:24:27.948Z,6.32
2018-12-17T14:25:57.883Z,6.31
2018-12-17T14:27:27.905Z,6.31
2018-12-17T14:28:57.817Z,6.36
2018-12-17T14:30:27.767Z,6.41
2018-12-17T14:31:57.794Z,6.43
2018-12-17T14:33:27.694Z,6.45
2018-12-17T14:34:57.719Z,6.40
2018-12-17T14:36:27.720Z,6.38
2018-12-17T14:38:01.859Z,6.45
2018-12-17T14:39:39.694Z,6.42
2018-12-17T14:41:09.807Z,6.43
2018-12-17T14:42:39.730Z,6.47
2018-12-17T14:44:15.396Z,6.51
2018-12-17T14:45:45.370Z,6.55
2018-12-17T14:47:15.348Z,6.51
2018-12-17T14:48:45.342Z,6.57
2018-12-17T14:50:17.062Z,6.47
2018-12-17T14:51:54.489Z,6.42
2018-12-17T14:53:24.563Z,6.40
2018-12-17T14:54:54.495Z,6.43
2018-12-17T14:56:24.431Z,6.42
2018-12-17T14:57:54.379Z,6.42
2018-12-17T14:59:24.778Z,6.43
2018-12-17T15:00:54.769Z,6.36
2018-12-17T15:02:24.761Z,6.37
2018-12-17T15:03:54.740Z,6.42
2018-12-17T15:05:24.884Z,6.44
2018-12-17T15:06:54.823Z,6.41
2018-12-17T15:08:24.736Z,6.41
2018-12-17T15:09:54.788Z,6.37
2018-12-17T15:11:24.743Z,6.34
2018-12-17T15:12:54.680Z,6.38
2018-12-17T15:14:24.623Z,6.36
2018-12-17T15:15:54.981Z,6.26
2018-12-17T15:17:25.067Z,6.21
2018-12-17T15:18:55.027Z,6.10
2018-12-17T15:20:25.025Z,5.99
2018-12-17T15:21:54.978Z,5.90
2018-12-17T15:23:25.150Z,5.94
2018-12-17T15:24:55.095Z,6.01
2018-12-17T15:26:25.096Z,6.05
2018-12-17T15:27:55.099Z,6.07
2018-12-17T15:29:25.178Z,6.00
2018-12-17T15:30:55.193Z,5.95
2018-12-17T15:32:25.312Z,5.96
2018-12-17T15:33:55.210Z,6.03
2018-12-17T15:35:25.156Z,6.17
2018-12-17T15:36:56.372Z,6.16
2018-12-17T15:38:26.266Z,6.16
2018-12-17T15:39:56.195Z,6.15
2018-12-17T15:41:26.094Z,6.22
2018-12-17T15:42:55.987Z,6.25
2018-12-17T15:44:26.130Z,6.23
2018-12-17T15:45:56.066Z,6.22
2018-12-17T15:47:25.975Z,6.17
2018-12-17T15:48:55.885Z,6.19
2018-12-17T15:50:25.925Z,6.24
2018-12-17T15:51:55.808Z,6.22
2018-12-17T15:53:25.700Z,6.26
2018-12-17T15:54:55.627Z,6.21
2018-12-17T15:56:25.623Z,6.13
2018-12-17T15:57:55.514Z,6.17
2018-12-17T15:59:25.532Z,6.07
2018-12-17T16:00:55.501Z,6.02
2018-12-17T16:02:25.414Z,5.91
2018-12-17T16:03:55.552Z,5.94
2018-12-17T16:05:25.474Z,6.00
2018-12-17T16:06:55.372Z,6.01
2018-12-17T16:08:47.922Z,5.98
2018-12-17T16:10:17.869Z,5.91
2018-12-17T16:11:47.767Z,5.85
2018-12-17T16:13:17.814Z,5.79
2018-12-17T16:14:48.645Z,5.83
2018-12-17T16:16:18.677Z,5.84
2018-12-17T16:17:48.568Z,5.87
2018-12-17T16:19:18.525Z,5.94
2018-12-17T16:20:49.569Z,5.90
2018-12-17T16:22:19.549Z,5.90
2018-12-17T16:23:49.474Z,5.95
2018-12-17T16:25:19.478Z,6.03
2018-12-17T16:26:50.227Z,6.06
2018-12-17T16:28:20.187Z,6.10
2018-12-17T16:29:50.174Z,6.17
2018-12-17T16:31:20.243Z,6.10
2018-12-17T16:32:50.139Z,6.08
2018-12-17T16:34:20.093Z,6.13
2018-12-17T16:35:50.007Z,6.14
2018-12-17T16:37:19.970Z,6.21
2018-12-17T16:38:50.192Z,6.19
2018-12-17T16:40:20.727Z,6.17
2018-12-17T16:41:51.010Z,6.10
2018-12-17T16:43:21.101Z,6.17
2018-12-17T16:44:51.028Z,6.11
2018-12-17T16:46:21.034Z,6.06
2018-12-17T16:47:51.038Z,5.99
2018-12-17T16:49:21.167Z,6.00
2018-12-17T16:50:51.411Z,5.99
2018-12-17T16:52:21.354Z,6.00
2018-12-17T16:53:51.335Z,6.03
2018-12-17T16:55:21.650Z,6.08
2018-12-17T16:56:51.664Z,6.05
2018-12-17T16:58:29.651Z,5.99
2018-12-17T16:59:59.823Z,6.00
2018-12-17T17:01:29.830Z,5.97
2018-12-17T17:02:59.748Z,5.90
2018-12-17T17:04:29.780Z,5.89
2018-12-17T17:05:59.714Z,5.84
2018-12-17T17:07:29.619Z,5.86
2018-12-17T17:08:59.525Z,5.81
2018-12-17T17:10:29.651Z,5.82
2018-12-17T17:11:59.707Z,5.75
2018-12-17T17:13:29.754Z,5.73
2018-12-17T17:15:10.099Z,5.61
2018-12-17T17:16:40.246Z,5.64
2018-12-17T17:18:10.299Z,5.61
2018-12-17T17:19:40.470Z,5.58
2018-12-17T17:21:10.507Z,5.58
2018-12-17T17:22:40.512Z,5.55
2018-12-17T17:24:10.418Z,5.47
2018-12-17T17:25:40.482Z,5.48
2018-12-17T17:27:10.380Z,5.47
2018-12-17T17:28:40.307Z,5.51
2018-12-17T17:30:10.626Z,5.49
2018-12-17T17:31:40.835Z,5.41
2018-12-17T17:33:10.779Z,5.31
2018-12-17T17:34:48.409Z,5.30
2018-12-17T17:36:18.467Z,5.31
2018-12-17T17:37:48.343Z,5.33
2018-12-17T17:39:18.330Z,5.25
2018-12-17T17:40:48.552Z,5.19
2018-12-17T17:42:32.187Z,5.15
2018-12-17T17:44:02.404Z,5.11
2018-12-17T17:45:32.365Z,5.06
2018-12-17T17:47:02.391Z,5.00
2018-12-17T17:48:32.287Z,5.02
2018-12-17T17:50:03.067Z,5.05
2018-12-17T17:51:33.483Z,5.04
2018-12-17T17:53:03.506Z,5.04
2018-12-17T17:54:33.656Z,5.03
2018-12-17T17:56:03.687Z,5.01
2018-12-17T17:57:33.671Z,5.08
2018-12-17T17:59:03.757Z,5.09
2018-12-17T18:00:33.733Z,5.07
2018-12-17T18:02:03.914Z,5.05
2018-12-17T18:03:34.435Z,5.07
2018-12-17T18:05:05.053Z,5.05
2018-12-17T18:06:35.421Z,5.04
2018-12-17T18:08:05.408Z,5.04
2018-12-17T18:09:35.442Z,5.07
2018-12-17T18:11:05.449Z,5.06
2018-12-17T18:12:35.442Z,5.13
2018-12-17T18:14:05.723Z,5.17
2018-12-17T18:15:35.798Z,5.20
2018-12-17T18:17:32.983Z,5.14
2018-12-17T18:19:03.309Z,5.05
2018-12-17T18:20:33.247Z,4.98
2018-12-17T18:22:03.435Z,4.97
2018-12-17T18:23:34.025Z,4.96
2018-12-17T18:25:04.422Z,4.90
2018-12-17T18:31:43.883Z,4.67
2018-12-17T18:33:13.800Z,4.61
2018-12-17T18:34:44.607Z,4.56
2018-12-17T18:36:15.525Z,4.55
2018-12-17T18:37:46.007Z,4.53
2018-12-17T18:39:16.635Z,4.49
2018-12-17T18:40:47.365Z,4.48
2018-12-17T18:42:18.221Z,4.41
2018-12-17T18:43:50.022Z,4.36
2018-12-17T18:45:20.245Z,4.32
2018-12-17T18:46:50.298Z,4.33
2018-12-17T18:48:20.455Z,4.31
2018-12-17T18:49:50.583Z,4.23
2018-12-17T18:51:20.799Z,4.20
2018-12-17T18:52:50.750Z,4.14
2018-12-17T18:54:20.982Z,4.08
2018-12-17T18:55:51.881Z,4.07
2018-12-17T18:57:22.264Z,4.03
2018-12-17T18:58:52.330Z,3.98
2018-12-17T19:00:22.283Z,3.97
2018-12-17T19:01:52.332Z,3.98
2018-12-17T19:03:22.682Z,3.95
2018-12-17T19:04:52.858Z,3.95
2018-12-17T19:06:23.310Z,3.99
2018-12-17T19:07:53.611Z,4.00
2018-12-17T19:09:24.522Z,3.99
2018-12-17T19:10:54.689Z,4.02
2018-12-17T19:12:25.235Z,4.00
2018-12-17T19:13:55.778Z,3.99
2018-12-17T19:16:15.556Z,3.95
2018-12-17T19:17:45.913Z,3.97
2018-12-17T19:19:16.138Z,3.95
2018-12-17T19:20:46.715Z,3.93
2018-12-17T19:22:17.374Z,3.83
2018-12-17T19:23:47.671Z,3.87
2018-12-17T19:25:18.444Z,3.77
2018-12-17T19:26:48.729Z,3.66
2018-12-17T19:28:19.501Z,3.68
2018-12-17T19:29:49.989Z,3.71
2018-12-17T19:31:20.256Z,3.76
2018-12-17T19:32:50.383Z,3.82
2018-12-17T19:34:20.488Z,3.88
2018-12-17T19:35:51.100Z,3.96
2018-12-17T19:37:21.582Z,4.00
2018-12-17T19:38:51.476Z,4.04
2018-12-17T19:40:21.537Z,4.06
2018-12-17T19:41:51.815Z,4.06
2018-12-17T19:43:22.029Z,4.06
2018-12-17T19:45:33.575Z,4.08
2018-12-17T19:47:03.639Z,3.88
2018-12-17T19:48:33.778Z,3.86
2018-12-17T19:50:04.474Z,3.90
2018-12-17T19:51:34.635Z,3.90
2018-12-17T19:53:04.854Z,3.90
2018-12-17T19:54:34.779Z,3.83
2018-12-17T19:56:04.835Z,3.80
2018-12-17T19:57:34.871Z,3.77
2018-12-17T19:59:05.001Z,3.67
2018-12-17T20:00:35.062Z,3.57
2018-12-17T20:02:05.524Z,3.52
2018-12-17T20:03:35.805Z,3.45
2018-12-17T20:05:06.917Z,3.44
2018-12-17T20:06:37.316Z,3.38
2018-12-17T20:08:07.594Z,3.36
2018-12-17T20:09:37.542Z,3.30
2018-12-17T20:11:08.007Z,3.26
2018-12-17T20:12:37.924Z,3.27
2018-12-17T20:14:07.965Z,3.22
2018-12-17T20:15:37.885Z,3.22
2018-12-17T20:17:07.931Z,3.16
2018-12-17T20:18:37.915Z,3.18
2018-12-17T20:20:08.055Z,3.22
2018-12-17T20:21:38.022Z,3.14
2018-12-17T20:23:08.042Z,3.14
2018-12-17T20:24:37.950Z,3.19
2018-12-17T20:26:08.079Z,3.22
2018-12-17T20:27:37.970Z,3.22
2018-12-17T20:29:08.292Z,3.27
2018-12-17T20:30:38.464Z,3.35
2018-12-17T20:32:08.739Z,3.32